sensor_id;sensor_type;location;lat;lon;timestamp;P1;durP1;ratioP1;P2;durP2;ratioP2
44110;SDS011;29774;52.664;5.074;2023-07-20T00:01:52;2.35;;;0.80;;
44110;SDS011;29774;52.664;5.074;2023-07-20T00:04:17;2.67;;;1.42;;
44110;SDS011;29774;52.664;5.074;2023-07-20T00:06:43;1.80;;;1.60;;
44110;SDS011;29774;52.664;5.074;2023-07-20T00:09:09;3.28;;;1.45;;
44110;SDS011;29774;52.664;5.074;2023-07-20T00:11:37;2.58;;;1.63;;
44110;SDS011;29774;52.664;5.074;2023-07-20T00:14:04;3.17;;;1.52;;
44110;SDS011;29774;52.664;5.074;2023-07-20T00:16:30;1.77;;;1.67;;
44110;SDS011;29774;52.664;5.074;2023-07-20T00:18:56;2.95;;;1.75;;
44110;SDS011;29774;52.664;5.074;2023-07-20T00:21:21;3.90;;;1.95;;
44110;SDS011;29774;52.664;5.074;2023-07-20T00:23:47;2.10;;;1.80;;
44110;SDS011;29774;52.664;5.074;2023-07-20T00:26:12;2.65;;;1.80;;
44110;SDS011;29774;52.664;5.074;2023-07-20T00:28:38;4.10;;;1.75;;
44110;SDS011;29774;52.664;5.074;2023-07-20T00:31:04;2.22;;;1.75;;
44110;SDS011;29774;52.664;5.074;2023-07-20T00:33:29;2.38;;;1.50;;
44110;SDS011;29774;52.664;5.074;2023-07-20T00:35:55;2.03;;;1.80;;
44110;SDS011;29774;52.664;5.074;2023-07-20T00:38:21;2.63;;;1.70;;
44110;SDS011;29774;52.664;5.074;2023-07-20T00:40:47;1.67;;;1.50;;
44110;SDS011;29774;52.664;5.074;2023-07-20T00:43:14;2.13;;;1.63;;
44110;SDS011;29774;52.664;5.074;2023-07-20T00:45:40;4.63;;;1.95;;
44110;SDS011;29774;52.664;5.074;2023-07-20T00:48:06;2.65;;;1.85;;
44110;SDS011;29774;52.664;5.074;2023-07-20T00:50:34;3.30;;;1.88;;
44110;SDS011;29774;52.664;5.074;2023-07-20T00:53:00;1.67;;;1.48;;
44110;SDS011;29774;52.664;5.074;2023-07-20T00:55:29;1.95;;;1.85;;
44110;SDS011;29774;52.664;5.074;2023-07-20T00:57:55;2.95;;;1.80;;
44110;SDS011;29774;52.664;5.074;2023-07-20T01:00:21;1.98;;;1.88;;
44110;SDS011;29774;52.664;5.074;2023-07-20T01:02:46;2.03;;;1.80;;
44110;SDS011;29774;52.664;5.074;2023-07-20T01:05:12;2.83;;;1.92;;
44110;SDS011;29774;52.664;5.074;2023-07-20T01:07:43;1.92;;;1.45;;
44110;SDS011;29774;52.664;5.074;2023-07-20T01:10:23;4.35;;;1.80;;
44110;SDS011;29774;52.664;5.074;2023-07-20T01:12:54;4.90;;;2.17;;
44110;SDS011;29774;52.664;5.074;2023-07-20T01:15:21;2.15;;;1.92;;
44110;SDS011;29774;52.664;5.074;2023-07-20T01:17:47;2.97;;;1.70;;
44110;SDS011;29774;52.664;5.074;2023-07-20T01:20:13;2.47;;;1.45;;
44110;SDS011;29774;52.664;5.074;2023-07-20T01:28:16;2.00;;;1.80;;
44110;SDS011;29774;52.664;5.074;2023-07-20T01:31:13;1.98;;;1.80;;
44110;SDS011;29774;52.664;5.074;2023-07-20T01:33:40;2.15;;;1.70;;
44110;SDS011;29774;52.664;5.074;2023-07-20T01:36:07;1.80;;;1.70;;
44110;SDS011;29774;52.664;5.074;2023-07-20T01:38:33;2.33;;;2.13;;
44110;SDS011;29774;52.664;5.074;2023-07-20T01:40:59;3.53;;;1.40;;
44110;SDS011;29774;52.664;5.074;2023-07-20T01:43:25;4.53;;;1.98;;
44110;SDS011;29774;52.664;5.074;2023-07-20T01:45:50;2.63;;;1.67;;
44110;SDS011;29774;52.664;5.074;2023-07-20T01:48:16;1.67;;;1.40;;
44110;SDS011;29774;52.664;5.074;2023-07-20T01:50:42;0.70;;;0.60;;
44110;SDS011;29774;52.664;5.074;2023-07-20T01:53:08;2.35;;;1.58;;
44110;SDS011;29774;52.664;5.074;2023-07-20T01:55:33;3.38;;;1.23;;
44110;SDS011;29774;52.664;5.074;2023-07-20T01:57:59;3.17;;;1.25;;
44110;SDS011;29774;52.664;5.074;2023-07-20T02:00:25;1.52;;;1.35;;
44110;SDS011;29774;52.664;5.074;2023-07-20T02:02:51;2.00;;;1.30;;
44110;SDS011;29774;52.664;5.074;2023-07-20T02:05:17;3.45;;;1.30;;
44110;SDS011;29774;52.664;5.074;2023-07-20T02:07:43;2.40;;;1.30;;
44110;SDS011;29774;52.664;5.074;2023-07-20T02:10:08;1.38;;;0.75;;
44110;SDS011;29774;52.664;5.074;2023-07-20T02:12:35;2.95;;;1.17;;
44110;SDS011;29774;52.664;5.074;2023-07-20T02:15:01;1.63;;;1.00;;
44110;SDS011;29774;52.664;5.074;2023-07-20T02:17:27;1.50;;;1.20;;
44110;SDS011;29774;52.664;5.074;2023-07-20T02:19:53;0.98;;;0.90;;
44110;SDS011;29774;52.664;5.074;2023-07-20T02:22:20;2.78;;;1.27;;
44110;SDS011;29774;52.664;5.074;2023-07-20T02:24:46;3.25;;;0.70;;
44110;SDS011;29774;52.664;5.074;2023-07-20T02:27:11;3.33;;;0.90;;
44110;SDS011;29774;52.664;5.074;2023-07-20T02:29:37;3.17;;;0.90;;
44110;SDS011;29774;52.664;5.074;2023-07-20T02:32:03;1.95;;;0.90;;
44110;SDS011;29774;52.664;5.074;2023-07-20T02:34:29;1.27;;;0.85;;
44110;SDS011;29774;52.664;5.074;2023-07-20T02:36:54;2.05;;;0.88;;
44110;SDS011;29774;52.664;5.074;2023-07-20T02:39:26;1.08;;;0.88;;
44110;SDS011;29774;52.664;5.074;2023-07-20T02:41:52;3.80;;;1.30;;
44110;SDS011;29774;52.664;5.074;2023-07-20T02:44:18;1.27;;;0.90;;
44110;SDS011;29774;52.664;5.074;2023-07-20T02:46:43;1.25;;;1.02;;
44110;SDS011;29774;52.664;5.074;2023-07-20T02:49:09;2.35;;;1.10;;
44110;SDS011;29774;52.664;5.074;2023-07-20T02:51:35;3.00;;;0.90;;
44110;SDS011;29774;52.664;5.074;2023-07-20T02:54:00;2.25;;;0.90;;
44110;SDS011;29774;52.664;5.074;2023-07-20T02:56:26;1.20;;;1.05;;
44110;SDS011;29774;52.664;5.074;2023-07-20T02:58:51;4.18;;;0.90;;
44110;SDS011;29774;52.664;5.074;2023-07-20T03:01:17;3.08;;;1.20;;
44110;SDS011;29774;52.664;5.074;2023-07-20T03:03:43;1.40;;;1.20;;
44110;SDS011;29774;52.664;5.074;2023-07-20T03:06:15;2.35;;;1.10;;
44110;SDS011;29774;52.664;5.074;2023-07-20T03:08:42;1.10;;;1.00;;
44110;SDS011;29774;52.664;5.074;2023-07-20T03:11:12;3.92;;;1.20;;
44110;SDS011;29774;52.664;5.074;2023-07-20T03:13:39;2.55;;;1.20;;
44110;SDS011;29774;52.664;5.074;2023-07-20T03:16:06;1.73;;;1.15;;
44110;SDS011;29774;52.664;5.074;2023-07-20T03:18:36;3.30;;;1.08;;
44110;SDS011;29774;52.664;5.074;2023-07-20T03:21:04;1.55;;;1.17;;
44110;SDS011;29774;52.664;5.074;2023-07-20T03:23:31;3.38;;;0.80;;
44110;SDS011;29774;52.664;5.074;2023-07-20T03:25:57;1.45;;;1.00;;
44110;SDS011;29774;52.664;5.074;2023-07-20T03:28:22;1.63;;;1.10;;
44110;SDS011;29774;52.664;5.074;2023-07-20T03:30:57;1.45;;;1.10;;
44110;SDS011;29774;52.664;5.074;2023-07-20T03:33:24;1.67;;;1.42;;
44110;SDS011;29774;52.664;5.074;2023-07-20T03:35:51;3.30;;;1.40;;
44110;SDS011;29774;52.664;5.074;2023-07-20T03:38:17;2.83;;;1.13;;
44110;SDS011;29774;52.664;5.074;2023-07-20T03:40:53;1.73;;;1.20;;
44110;SDS011;29774;52.664;5.074;2023-07-20T03:43:23;1.60;;;1.35;;
44110;SDS011;29774;52.664;5.074;2023-07-20T03:45:50;2.33;;;1.10;;
44110;SDS011;29774;52.664;5.074;2023-07-20T03:48:16;1.27;;;1.13;;
44110;SDS011;29774;52.664;5.074;2023-07-20T03:50:46;2.95;;;1.52;;
44110;SDS011;29774;52.664;5.074;2023-07-20T03:53:12;2.15;;;1.13;;
44110;SDS011;29774;52.664;5.074;2023-07-20T03:55:39;1.60;;;1.15;;
44110;SDS011;29774;52.664;5.074;2023-07-20T03:58:07;1.58;;;1.20;;
44110;SDS011;29774;52.664;5.074;2023-07-20T04:00:33;2.78;;;0.98;;
44110;SDS011;29774;52.664;5.074;2023-07-20T04:03:00;1.30;;;1.20;;
44110;SDS011;29774;52.664;5.074;2023-07-20T04:05:25;1.63;;;1.52;;
44110;SDS011;29774;52.664;5.074;2023-07-20T04:07:51;1.60;;;1.30;;
44110;SDS011;29774;52.664;5.074;2023-07-20T04:10:17;2.53;;;1.50;;
44110;SDS011;29774;52.664;5.074;2023-07-20T04:12:43;1.48;;;1.15;;
44110;SDS011;29774;52.664;5.074;2023-07-20T04:15:10;3.78;;;1.33;;
44110;SDS011;29774;52.664;5.074;2023-07-20T04:17:35;1.38;;;1.27;;
44110;SDS011;29774;52.664;5.074;2023-07-20T04:20:01;1.10;;;1.00;;
44110;SDS011;29774;52.664;5.074;2023-07-20T04:22:28;1.40;;;1.30;;
44110;SDS011;29774;52.664;5.074;2023-07-20T04:24:54;2.92;;;1.33;;
44110;SDS011;29774;52.664;5.074;2023-07-20T04:27:19;2.75;;;1.40;;
44110;SDS011;29774;52.664;5.074;2023-07-20T04:29:45;1.80;;;1.27;;
44110;SDS011;29774;52.664;5.074;2023-07-20T04:32:10;1.77;;;1.27;;
44110;SDS011;29774;52.664;5.074;2023-07-20T04:34:36;5.50;;;1.20;;
44110;SDS011;29774;52.664;5.074;2023-07-20T04:37:02;3.05;;;1.30;;
44110;SDS011;29774;52.664;5.074;2023-07-20T04:39:29;4.47;;;1.30;;
44110;SDS011;29774;52.664;5.074;2023-07-20T04:41:54;3.90;;;1.20;;
44110;SDS011;29774;52.664;5.074;2023-07-20T04:44:20;1.40;;;1.20;;
44110;SDS011;29774;52.664;5.074;2023-07-20T04:46:45;2.28;;;1.30;;
44110;SDS011;29774;52.664;5.074;2023-07-20T04:49:11;1.80;;;1.65;;
44110;SDS011;29774;52.664;5.074;2023-07-20T04:51:38;2.88;;;1.23;;
44110;SDS011;29774;52.664;5.074;2023-07-20T04:54:03;1.65;;;1.55;;
44110;SDS011;29774;52.664;5.074;2023-07-20T04:56:29;2.13;;;1.90;;
44110;SDS011;29774;52.664;5.074;2023-07-20T04:58:54;4.15;;;1.42;;
44110;SDS011;29774;52.664;5.074;2023-07-20T05:01:20;1.48;;;1.30;;
44110;SDS011;29774;52.664;5.074;2023-07-20T05:03:46;1.55;;;1.30;;
44110;SDS011;29774;52.664;5.074;2023-07-20T05:06:11;3.92;;;1.20;;
44110;SDS011;29774;52.664;5.074;2023-07-20T05:08:37;2.88;;;1.20;;
44110;SDS011;29774;52.664;5.074;2023-07-20T05:11:04;2.83;;;1.70;;
44110;SDS011;29774;52.664;5.074;2023-07-20T05:13:29;1.40;;;1.30;;
44110;SDS011;29774;52.664;5.074;2023-07-20T05:15:55;0.90;;;0.60;;
44110;SDS011;29774;52.664;5.074;2023-07-20T05:18:20;2.65;;;1.30;;
44110;SDS011;29774;52.664;5.074;2023-07-20T05:20:47;1.30;;;1.20;;
44110;SDS011;29774;52.664;5.074;2023-07-20T05:23:13;2.35;;;1.38;;
44110;SDS011;29774;52.664;5.074;2023-07-20T05:25:39;3.03;;;1.35;;
44110;SDS011;29774;52.664;5.074;2023-07-20T05:28:04;1.15;;;1.10;;
44110;SDS011;29774;52.664;5.074;2023-07-20T05:30:31;1.33;;;1.10;;
44110;SDS011;29774;52.664;5.074;2023-07-20T05:32:56;1.80;;;1.50;;
44110;SDS011;29774;52.664;5.074;2023-07-20T05:35:22;4.78;;;1.42;;
44110;SDS011;29774;52.664;5.074;2023-07-20T05:37:48;2.05;;;1.20;;
44110;SDS011;29774;52.664;5.074;2023-07-20T05:40:16;2.30;;;1.30;;
44110;SDS011;29774;52.664;5.074;2023-07-20T05:42:44;1.83;;;1.15;;
44110;SDS011;29774;52.664;5.074;2023-07-20T05:45:11;2.15;;;1.10;;
44110;SDS011;29774;52.664;5.074;2023-07-20T05:47:37;1.90;;;1.08;;
44110;SDS011;29774;52.664;5.074;2023-07-20T05:50:02;1.13;;;1.02;;
44110;SDS011;29774;52.664;5.074;2023-07-20T05:52:28;1.20;;;0.98;;
44110;SDS011;29774;52.664;5.074;2023-07-20T05:54:54;1.15;;;0.60;;
44110;SDS011;29774;52.664;5.074;2023-07-20T05:57:20;3.72;;;1.00;;
44110;SDS011;29774;52.664;5.074;2023-07-20T05:59:45;1.25;;;0.95;;
44110;SDS011;29774;52.664;5.074;2023-07-20T06:02:11;1.17;;;0.88;;
44110;SDS011;29774;52.664;5.074;2023-07-20T06:04:38;1.70;;;1.10;;
44110;SDS011;29774;52.664;5.074;2023-07-20T06:07:04;2.03;;;1.35;;
44110;SDS011;29774;52.664;5.074;2023-07-20T06:09:30;0.85;;;0.68;;
44110;SDS011;29774;52.664;5.074;2023-07-20T06:11:56;1.45;;;1.33;;
44110;SDS011;29774;52.664;5.074;2023-07-20T06:14:22;1.75;;;1.25;;
44110;SDS011;29774;52.664;5.074;2023-07-20T06:16:47;3.80;;;0.88;;
44110;SDS011;29774;52.664;5.074;2023-07-20T06:19:13;0.70;;;0.70;;
44110;SDS011;29774;52.664;5.074;2023-07-20T06:21:39;1.17;;;0.90;;
44110;SDS011;29774;52.664;5.074;2023-07-20T06:24:05;2.25;;;0.70;;
44110;SDS011;29774;52.664;5.074;2023-07-20T06:26:30;1.35;;;0.75;;
44110;SDS011;29774;52.664;5.074;2023-07-20T06:28:57;0.55;;;0.55;;
44110;SDS011;29774;52.664;5.074;2023-07-20T06:31:23;1.70;;;1.17;;
44110;SDS011;29774;52.664;5.074;2023-07-20T06:33:48;1.20;;;0.55;;
44110;SDS011;29774;52.664;5.074;2023-07-20T06:36:16;0.50;;;0.50;;
44110;SDS011;29774;52.664;5.074;2023-07-20T06:38:42;0.50;;;0.50;;
44110;SDS011;29774;52.664;5.074;2023-07-20T06:41:08;0.40;;;0.38;;
44110;SDS011;29774;52.664;5.074;2023-07-20T06:43:33;1.63;;;0.75;;
44110;SDS011;29774;52.664;5.074;2023-07-20T06:46:00;0.80;;;0.30;;
44110;SDS011;29774;52.664;5.074;2023-07-20T06:48:25;0.90;;;0.40;;
44110;SDS011;29774;52.664;5.074;2023-07-20T06:50:51;0.30;;;0.30;;
44110;SDS011;29774;52.664;5.074;2023-07-20T06:53:17;0.80;;;0.50;;
44110;SDS011;29774;52.664;5.074;2023-07-20T06:55:42;0.50;;;0.50;;
44110;SDS011;29774;52.664;5.074;2023-07-20T06:58:09;0.68;;;0.45;;
44110;SDS011;29774;52.664;5.074;2023-07-20T07:00:35;1.27;;;0.50;;
44110;SDS011;29774;52.664;5.074;2023-07-20T07:03:00;0.93;;;0.60;;
44110;SDS011;29774;52.664;5.074;2023-07-20T07:05:26;1.38;;;0.60;;
44110;SDS011;29774;52.664;5.074;2023-07-20T07:07:52;2.15;;;0.60;;
44110;SDS011;29774;52.664;5.074;2023-07-20T07:10:17;0.40;;;0.40;;
44110;SDS011;29774;52.664;5.074;2023-07-20T07:12:43;0.40;;;0.40;;
44110;SDS011;29774;52.664;5.074;2023-07-20T07:15:09;0.30;;;0.30;;
44110;SDS011;29774;52.664;5.074;2023-07-20T07:17:35;0.57;;;0.50;;
44110;SDS011;29774;52.664;5.074;2023-07-20T07:20:01;1.20;;;0.73;;
44110;SDS011;29774;52.664;5.074;2023-07-20T07:22:28;0.20;;;0.20;;
44110;SDS011;29774;52.664;5.074;2023-07-20T07:24:54;0.40;;;0.40;;
44110;SDS011;29774;52.664;5.074;2023-07-20T07:27:20;0.40;;;0.40;;
44110;SDS011;29774;52.664;5.074;2023-07-20T07:29:45;0.40;;;0.40;;
44110;SDS011;29774;52.664;5.074;2023-07-20T07:32:11;1.15;;;0.45;;
44110;SDS011;29774;52.664;5.074;2023-07-20T07:34:37;0.75;;;0.45;;
44110;SDS011;29774;52.664;5.074;2023-07-20T07:37:04;0.50;;;0.40;;
44110;SDS011;29774;52.664;5.074;2023-07-20T07:39:30;1.17;;;0.57;;
44110;SDS011;29774;52.664;5.074;2023-07-20T07:41:56;0.93;;;0.50;;
44110;SDS011;29774;52.664;5.074;2023-07-20T07:44:22;0.57;;;0.50;;
44110;SDS011;29774;52.664;5.074;2023-07-20T07:46:48;0.70;;;0.40;;
44110;SDS011;29774;52.664;5.074;2023-07-20T07:49:14;0.40;;;0.40;;
44110;SDS011;29774;52.664;5.074;2023-07-20T07:51:40;0.45;;;0.45;;
44110;SDS011;29774;52.664;5.074;2023-07-20T07:54:05;0.85;;;0.47;;
44110;SDS011;29774;52.664;5.074;2023-07-20T07:56:31;0.95;;;0.50;;
44110;SDS011;29774;52.664;5.074;2023-07-20T07:58:57;1.73;;;0.40;;
44110;SDS011;29774;52.664;5.074;2023-07-20T08:01:22;0.75;;;0.55;;
44110;SDS011;29774;52.664;5.074;2023-07-20T08:03:48;0.50;;;0.40;;
44110;SDS011;29774;52.664;5.074;2023-07-20T08:06:14;0.40;;;0.40;;
44110;SDS011;29774;52.664;5.074;2023-07-20T08:08:40;0.40;;;0.40;;
44110;SDS011;29774;52.664;5.074;2023-07-20T08:11:07;0.57;;;0.30;;
44110;SDS011;29774;52.664;5.074;2023-07-20T08:13:33;0.60;;;0.40;;
44110;SDS011;29774;52.664;5.074;2023-07-20T08:16:00;0.75;;;0.50;;
44110;SDS011;29774;52.664;5.074;2023-07-20T08:18:27;1.00;;;0.50;;
44110;SDS011;29774;52.664;5.074;2023-07-20T08:20:53;0.63;;;0.60;;
44110;SDS011;29774;52.664;5.074;2023-07-20T08:23:19;0.40;;;0.40;;
44110;SDS011;29774;52.664;5.074;2023-07-20T08:25:44;0.85;;;0.70;;
44110;SDS011;29774;52.664;5.074;2023-07-20T08:28:11;0.65;;;0.50;;
44110;SDS011;29774;52.664;5.074;2023-07-20T08:30:43;1.00;;;0.80;;
44110;SDS011;29774;52.664;5.074;2023-07-20T08:33:10;1.35;;;0.60;;
44110;SDS011;29774;52.664;5.074;2023-07-20T08:35:38;0.60;;;0.60;;
44110;SDS011;29774;52.664;5.074;2023-07-20T08:38:03;0.60;;;0.47;;
44110;SDS011;29774;52.664;5.074;2023-07-20T08:40:33;1.13;;;0.52;;
44110;SDS011;29774;52.664;5.074;2023-07-20T08:43:03;3.58;;;0.52;;
44110;SDS011;29774;52.664;5.074;2023-07-20T08:45:29;1.00;;;0.75;;
44110;SDS011;29774;52.664;5.074;2023-07-20T08:47:58;0.60;;;0.60;;
44110;SDS011;29774;52.664;5.074;2023-07-20T08:50:27;2.55;;;0.80;;
44110;SDS011;29774;52.664;5.074;2023-07-20T08:52:55;0.93;;;0.60;;
44110;SDS011;29774;52.664;5.074;2023-07-20T08:55:22;1.55;;;0.60;;
44110;SDS011;29774;52.664;5.074;2023-07-20T08:57:55;0.50;;;0.50;;
44110;SDS011;29774;52.664;5.074;2023-07-20T09:00:23;1.00;;;0.70;;
44110;SDS011;29774;52.664;5.074;2023-07-20T09:02:50;0.68;;;0.50;;
44110;SDS011;29774;52.664;5.074;2023-07-20T09:05:17;0.43;;;0.40;;
44110;SDS011;29774;52.664;5.074;2023-07-20T09:07:43;0.65;;;0.60;;
44110;SDS011;29774;52.664;5.074;2023-07-20T09:10:09;0.63;;;0.55;;
44110;SDS011;29774;52.664;5.074;2023-07-20T09:12:36;0.60;;;0.50;;
44110;SDS011;29774;52.664;5.074;2023-07-20T09:15:03;1.48;;;0.75;;
44110;SDS011;29774;52.664;5.074;2023-07-20T09:17:29;0.80;;;0.75;;
44110;SDS011;29774;52.664;5.074;2023-07-20T09:19:55;0.93;;;0.60;;
44110;SDS011;29774;52.664;5.074;2023-07-20T09:22:21;2.13;;;1.35;;
44110;SDS011;29774;52.664;5.074;2023-07-20T09:24:46;2.85;;;0.88;;
44110;SDS011;29774;52.664;5.074;2023-07-20T09:27:12;3.17;;;1.25;;
44110;SDS011;29774;52.664;5.074;2023-07-20T09:29:50;0.52;;;0.50;;
44110;SDS011;29774;52.664;5.074;2023-07-20T09:32:21;1.23;;;0.80;;
44110;SDS011;29774;52.664;5.074;2023-07-20T09:34:47;1.90;;;1.30;;
44110;SDS011;29774;52.664;5.074;2023-07-20T09:37:19;0.88;;;0.77;;
44110;SDS011;29774;52.664;5.074;2023-07-20T09:39:47;1.75;;;1.40;;
44110;SDS011;29774;52.664;5.074;2023-07-20T09:42:13;3.13;;;0.93;;
44110;SDS011;29774;52.664;5.074;2023-07-20T09:44:39;1.40;;;0.57;;
44110;SDS011;29774;52.664;5.074;2023-07-20T09:47:05;0.70;;;0.70;;
44110;SDS011;29774;52.664;5.074;2023-07-20T09:49:31;1.17;;;0.57;;
44110;SDS011;29774;52.664;5.074;2023-07-20T09:51:57;2.10;;;0.90;;
44110;SDS011;29774;52.664;5.074;2023-07-20T09:54:25;0.93;;;0.60;;
44110;SDS011;29774;52.664;5.074;2023-07-20T09:56:53;1.40;;;0.90;;
44110;SDS011;29774;52.664;5.074;2023-07-20T09:59:20;1.35;;;0.95;;
44110;SDS011;29774;52.664;5.074;2023-07-20T10:01:46;0.98;;;0.70;;
44110;SDS011;29774;52.664;5.074;2023-07-20T10:04:14;1.55;;;0.70;;
44110;SDS011;29774;52.664;5.074;2023-07-20T10:06:43;1.35;;;0.45;;
44110;SDS011;29774;52.664;5.074;2023-07-20T10:09:15;0.70;;;0.70;;
44110;SDS011;29774;52.664;5.074;2023-07-20T10:11:43;1.08;;;0.50;;
44110;SDS011;29774;52.664;5.074;2023-07-20T10:14:12;1.58;;;0.70;;
44110;SDS011;29774;52.664;5.074;2023-07-20T10:16:54;1.90;;;0.80;;
44110;SDS011;29774;52.664;5.074;2023-07-20T10:19:25;0.63;;;0.63;;
44110;SDS011;29774;52.664;5.074;2023-07-20T10:22:03;1.02;;;0.65;;
44110;SDS011;29774;52.664;5.074;2023-07-20T10:24:39;1.50;;;0.68;;
44110;SDS011;29774;52.664;5.074;2023-07-20T10:27:06;1.30;;;0.68;;
44110;SDS011;29774;52.664;5.074;2023-07-20T10:29:32;3.15;;;0.88;;
44110;SDS011;29774;52.664;5.074;2023-07-20T10:31:58;0.73;;;0.68;;
44110;SDS011;29774;52.664;5.074;2023-07-20T10:34:24;1.92;;;0.70;;
44110;SDS011;29774;52.664;5.074;2023-07-20T10:36:50;0.60;;;0.50;;
44110;SDS011;29774;52.664;5.074;2023-07-20T10:41:49;1.50;;;0.80;;
44110;SDS011;29774;52.664;5.074;2023-07-20T10:44:18;1.77;;;0.90;;
44110;SDS011;29774;52.664;5.074;2023-07-20T10:46:45;0.60;;;0.50;;
44110;SDS011;29774;52.664;5.074;2023-07-20T10:49:12;0.82;;;0.60;;
44110;SDS011;29774;52.664;5.074;2023-07-20T10:56:41;1.95;;;0.70;;
44110;SDS011;29774;52.664;5.074;2023-07-20T10:59:53;1.80;;;0.70;;
44110;SDS011;29774;52.664;5.074;2023-07-20T11:01:55;0.93;;;0.60;;
44110;SDS011;29774;52.664;5.074;2023-07-20T11:04:41;1.40;;;0.93;;
44110;SDS011;29774;52.664;5.074;2023-07-20T11:07:07;2.70;;;0.73;;
44110;SDS011;29774;52.664;5.074;2023-07-20T11:09:34;0.40;;;0.40;;
44110;SDS011;29774;52.664;5.074;2023-07-20T11:12:10;1.15;;;0.52;;
44110;SDS011;29774;52.664;5.074;2023-07-20T11:14:41;1.30;;;0.60;;
44110;SDS011;29774;52.664;5.074;2023-07-20T11:17:11;0.95;;;0.50;;
44110;SDS011;29774;52.664;5.074;2023-07-20T11:19:38;3.83;;;0.80;;
44110;SDS011;29774;52.664;5.074;2023-07-20T11:22:05;1.10;;;0.80;;
44110;SDS011;29774;52.664;5.074;2023-07-20T11:24:33;1.27;;;0.60;;
44110;SDS011;29774;52.664;5.074;2023-07-20T11:26:58;1.20;;;0.90;;
44110;SDS011;29774;52.664;5.074;2023-07-20T11:29:25;0.75;;;0.75;;
44110;SDS011;29774;52.664;5.074;2023-07-20T11:31:51;1.00;;;0.70;;
44110;SDS011;29774;52.664;5.074;2023-07-20T11:34:18;1.15;;;0.70;;
44110;SDS011;29774;52.664;5.074;2023-07-20T11:36:46;1.30;;;0.88;;
44110;SDS011;29774;52.664;5.074;2023-07-20T11:39:14;0.73;;;0.50;;
44110;SDS011;29774;52.664;5.074;2023-07-20T11:41:44;1.00;;;0.60;;
44110;SDS011;29774;52.664;5.074;2023-07-20T11:44:17;1.75;;;0.75;;
44110;SDS011;29774;52.664;5.074;2023-07-20T11:49:29;1.42;;;0.60;;
44110;SDS011;29774;52.664;5.074;2023-07-20T11:51:54;2.72;;;0.80;;
44110;SDS011;29774;52.664;5.074;2023-07-20T11:54:21;0.93;;;0.70;;
44110;SDS011;29774;52.664;5.074;2023-07-20T11:56:48;0.82;;;0.60;;
44110;SDS011;29774;52.664;5.074;2023-07-20T11:59:13;0.50;;;0.50;;
44110;SDS011;29774;52.664;5.074;2023-07-20T12:01:39;0.43;;;0.38;;
44110;SDS011;29774;52.664;5.074;2023-07-20T12:04:05;0.55;;;0.52;;
44110;SDS011;29774;52.664;5.074;2023-07-20T12:06:32;0.68;;;0.60;;
44110;SDS011;29774;52.664;5.074;2023-07-20T12:08:58;2.20;;;0.65;;
44110;SDS011;29774;52.664;5.074;2023-07-20T12:11:30;1.42;;;0.60;;
44110;SDS011;29774;52.664;5.074;2023-07-20T12:13:57;0.82;;;0.50;;
44110;SDS011;29774;52.664;5.074;2023-07-20T12:16:26;1.25;;;1.10;;
44110;SDS011;29774;52.664;5.074;2023-07-20T12:18:59;0.90;;;0.73;;
44110;SDS011;29774;52.664;5.074;2023-07-20T12:21:34;2.40;;;0.57;;
44110;SDS011;29774;52.664;5.074;2023-07-20T12:24:05;0.52;;;0.50;;
44110;SDS011;29774;52.664;5.074;2023-07-20T12:26:32;0.50;;;0.50;;
44110;SDS011;29774;52.664;5.074;2023-07-20T12:28:59;1.20;;;0.52;;
44110;SDS011;29774;52.664;5.074;2023-07-20T12:31:25;1.90;;;0.60;;
44110;SDS011;29774;52.664;5.074;2023-07-20T12:33:52;0.77;;;0.50;;
44110;SDS011;29774;52.664;5.074;2023-07-20T12:36:20;0.43;;;0.43;;
44110;SDS011;29774;52.664;5.074;2023-07-20T12:38:47;2.17;;;1.00;;
44110;SDS011;29774;52.664;5.074;2023-07-20T12:41:13;2.47;;;1.13;;
44110;SDS011;29774;52.664;5.074;2023-07-20T12:43:39;1.00;;;0.90;;
44110;SDS011;29774;52.664;5.074;2023-07-20T12:46:05;4.30;;;0.88;;
44110;SDS011;29774;52.664;5.074;2023-07-20T12:48:31;0.50;;;0.50;;
44110;SDS011;29774;52.664;5.074;2023-07-20T12:50:58;1.27;;;1.13;;
44110;SDS011;29774;52.664;5.074;2023-07-20T12:53:23;1.25;;;0.63;;
44110;SDS011;29774;52.664;5.074;2023-07-20T12:55:49;1.80;;;0.80;;
44110;SDS011;29774;52.664;5.074;2023-07-20T12:58:14;0.68;;;0.68;;
44110;SDS011;29774;52.664;5.074;2023-07-20T13:00:40;0.82;;;0.57;;
44110;SDS011;29774;52.664;5.074;2023-07-20T13:03:06;1.25;;;0.65;;
44110;SDS011;29774;52.664;5.074;2023-07-20T13:05:33;0.50;;;0.50;;
44110;SDS011;29774;52.664;5.074;2023-07-20T13:08:00;2.33;;;0.98;;
44110;SDS011;29774;52.664;5.074;2023-07-20T13:10:27;3.53;;;1.05;;
44110;SDS011;29774;52.664;5.074;2023-07-20T13:12:54;1.67;;;1.30;;
44110;SDS011;29774;52.664;5.074;2023-07-20T13:15:19;2.05;;;0.90;;
44110;SDS011;29774;52.664;5.074;2023-07-20T13:17:45;3.55;;;1.23;;
44110;SDS011;29774;52.664;5.074;2023-07-20T13:20:11;2.60;;;1.00;;
44110;SDS011;29774;52.664;5.074;2023-07-20T13:22:37;3.53;;;1.48;;
44110;SDS011;29774;52.664;5.074;2023-07-20T13:25:03;2.40;;;1.30;;
44110;SDS011;29774;52.664;5.074;2023-07-20T13:27:30;2.70;;;1.20;;
44110;SDS011;29774;52.664;5.074;2023-07-20T13:29:56;3.65;;;1.15;;
44110;SDS011;29774;52.664;5.074;2023-07-20T13:32:22;5.70;;;1.20;;
44110;SDS011;29774;52.664;5.074;2023-07-20T13:34:48;2.45;;;1.10;;
44110;SDS011;29774;52.664;5.074;2023-07-20T13:37:14;2.03;;;0.93;;
44110;SDS011;29774;52.664;5.074;2023-07-20T13:39:41;1.15;;;0.88;;
44110;SDS011;29774;52.664;5.074;2023-07-20T13:42:07;1.92;;;1.65;;
44110;SDS011;29774;52.664;5.074;2023-07-20T13:44:34;1.60;;;1.10;;
44110;SDS011;29774;52.664;5.074;2023-07-20T13:47:00;4.57;;;1.20;;
44110;SDS011;29774;52.664;5.074;2023-07-20T13:49:26;1.95;;;0.88;;
44110;SDS011;29774;52.664;5.074;2023-07-20T13:51:53;2.03;;;0.90;;
44110;SDS011;29774;52.664;5.074;2023-07-20T13:54:19;0.80;;;0.60;;
44110;SDS011;29774;52.664;5.074;2023-07-20T13:56:44;1.70;;;0.80;;
44110;SDS011;29774;52.664;5.074;2023-07-20T13:59:10;1.83;;;1.00;;
44110;SDS011;29774;52.664;5.074;2023-07-20T14:01:35;2.10;;;0.80;;
44110;SDS011;29774;52.664;5.074;2023-07-20T14:04:02;2.63;;;1.10;;
44110;SDS011;29774;52.664;5.074;2023-07-20T14:06:29;1.13;;;0.98;;
44110;SDS011;29774;52.664;5.074;2023-07-20T14:08:56;3.72;;;0.82;;
44110;SDS011;29774;52.664;5.074;2023-07-20T14:11:22;1.95;;;1.02;;
44110;SDS011;29774;52.664;5.074;2023-07-20T14:13:48;1.33;;;0.80;;
44110;SDS011;29774;52.664;5.074;2023-07-20T14:16:14;2.00;;;0.90;;
44110;SDS011;29774;52.664;5.074;2023-07-20T14:18:40;1.52;;;1.00;;
44110;SDS011;29774;52.664;5.074;2023-07-20T14:21:06;0.77;;;0.73;;
44110;SDS011;29774;52.664;5.074;2023-07-20T14:23:32;2.10;;;1.02;;
44110;SDS011;29774;52.664;5.074;2023-07-20T14:25:57;0.80;;;0.80;;
44110;SDS011;29774;52.664;5.074;2023-07-20T14:28:24;1.20;;;0.75;;
44110;SDS011;29774;52.664;5.074;2023-07-20T14:30:49;2.55;;;1.10;;
44110;SDS011;29774;52.664;5.074;2023-07-20T14:33:15;1.10;;;1.00;;
44110;SDS011;29774;52.664;5.074;2023-07-20T14:35:40;1.33;;;0.93;;
44110;SDS011;29774;52.664;5.074;2023-07-20T14:38:06;1.20;;;0.80;;
44110;SDS011;29774;52.664;5.074;2023-07-20T14:40:32;1.08;;;0.70;;
44110;SDS011;29774;52.664;5.074;2023-07-20T14:42:57;1.63;;;1.00;;
44110;SDS011;29774;52.664;5.074;2023-07-20T14:45:25;4.38;;;1.10;;
44110;SDS011;29774;52.664;5.074;2023-07-20T14:47:54;2.85;;;0.68;;
44110;SDS011;29774;52.664;5.074;2023-07-20T14:50:20;1.33;;;0.85;;
44110;SDS011;29774;52.664;5.074;2023-07-20T14:52:46;1.70;;;0.98;;
44110;SDS011;29774;52.664;5.074;2023-07-20T14:55:12;1.52;;;1.10;;
44110;SDS011;29774;52.664;5.074;2023-07-20T14:57:38;1.95;;;0.98;;
44110;SDS011;29774;52.664;5.074;2023-07-20T15:00:05;1.70;;;1.00;;
44110;SDS011;29774;52.664;5.074;2023-07-20T15:02:33;1.80;;;0.90;;